• Join FlightAware (Why Join?)
  • Login
  • US Flag 
08:13AM EDT


 

Airport Tracker/Info


-or-


 

Live Flight TrackerFlight Track Log ✈ UAL4563 ✈ 01-May-2013 ✈ KCLE - KMHT

Flight Track Log - Related Links

Times and Time Zones

All times are in EDT time to prevent confusion due to time zone crossing. See the UAL4563 flight status page for this flight to view local times or setup timezone preferences in your user account.

Time Position Orientation Groundspeed Altitude Reporting Facility
EDT Latitude Longitude Course Direction KTS MPH feet Rate Location/Type
07:05PM 41.3917 -81.8978 274° West 191 220 2,000  Level Cleveland Center
07:05PM 41.3933 -81.9339 274° West 201 231 2,900 2,100 Climbing Cleveland Center
07:06PM 41.4156 -82.0008 294° West 228 262 5,200 2,040 Climbing Cleveland Center
07:07PM 41.4844 -81.9939 North 262 302 7,300 1,800 Climbing Cleveland Center
07:08PM 41.5353 -81.9258 45° Northeast 252 290 9,100 1,680 Climbing Cleveland Center
07:09PM 41.5842 -81.8433 52° Northeast 262 302 10,700 1,080 Climbing Cleveland Center
07:10PM 41.6414 -81.7528 50° Northeast 305 351 11,300 960 Climbing Cleveland Center
07:11PM 41.7069 -81.6400 52° Northeast 337 388 12,700 1,500 Climbing Cleveland Center
07:12PM 41.7664 -81.5381 52° Northeast 345 397 14,300 1,560 Climbing Cleveland Center
07:13PM 41.8253 -81.4414 51° Northeast 345 397 15,900 1,500 Climbing Cleveland Center
07:14PM 41.8533 -81.3192 73° East 332 382 17,300 1,080 Climbing Cleveland Center
07:15PM 41.8750 -81.1883 77° East 340 391 18,100 900 Climbing Cleveland Center
07:16PM 41.8964 -81.0572 78° East 357 411 19,200 1,020 Climbing Cleveland Center
07:17PM 41.9178 -80.9181 78° East 370 426 20,200 900 Climbing Cleveland Center
07:18PM 41.9389 -80.7925 77° East 375 432 21,000 900 Climbing Cleveland Center
07:19PM 41.9619 -80.6475 78° East 383 441 22,100 1,080 Climbing Cleveland Center
07:20PM 41.9828 -80.5050 79° East 389 448 23,200 1,200 Climbing Cleveland Center
07:21PM 42.0056 -80.3597 78° East 395 455 24,500 1,200 Climbing Cleveland Center
07:22PM 42.0281 -80.2197 78° East 390 449 25,700 1,320 Climbing Cleveland Center
07:23PM 42.0506 -80.0797 78° East 390 449 27,200 1,680 Climbing Cleveland Center
07:24PM 42.0708 -79.9425 79° East 383 441 29,100 1,560 Climbing Cleveland Center
07:25PM 42.0889 -79.8194 79° East 358 412 30,400 900 Climbing Cleveland Center
07:26PM 42.1086 -79.6847 79° East 352 405 31,000 540 Climbing Cleveland Center
07:27PM 42.1303 -79.5444 78° East 367 422 31,500 480 Climbing Cleveland Center
07:28PM 42.1497 -79.3986 80° East 379 436 32,000 720 Climbing Cleveland Center
07:29PM 42.1711 -79.2525 79° East 394 453 33,000 1,020 Climbing Cleveland Center
07:30PM 42.1903 -79.1064 80° East 394 453 34,100 960 Climbing Cleveland Center
07:31PM 42.2111 -78.9572 79° East 394 453 35,000 420 Climbing Cleveland Center
07:32PM 42.2336 -78.7939 79° East 394 453 35,000  Level Cleveland Center
07:33PM 42.2519 -78.6364 81° East 406 467 35,000  Level Cleveland Center
07:34PM 42.2722 -78.4758 80° East 419 482 35,000  Level Cleveland Center
07:35PM 42.2919 -78.3181 80° East 424 488 35,000  Level Cleveland Center
07:36PM 42.3097 -78.1656 81° East 424 488 35,000  Level Cleveland Center
07:37PM 42.3272 -78.0106 81° East 424 488 35,000  Level Cleveland Center
07:38PM 42.3467 -77.8525 80° East 424 488 35,000  Level Cleveland Center
07:39PM 42.3636 -77.6969 82° East 424 488 35,000  Level Cleveland Center
07:41PM 42.3919 -77.4478 81° East 425 489 35,000  Level Boston Center
07:42PM 42.4092 -77.2917 81° East 425 489 35,000  Level Boston Center
07:43PM 42.4283 -77.1356 81° East 425 489 35,000  Level Boston Center
07:44PM 42.4450 -76.9792 82° East 425 489 35,000  Level Boston Center
07:45PM 42.4636 -76.8286 80° East 420 483 35,000  Level Boston Center
07:46PM 42.4778 -76.6717 83° East 420 483 35,000  Level Boston Center
07:47PM 42.4958 -76.5208 81° East 415 478 35,000  Level Boston Center
07:48PM 42.5092 -76.3808 83° East 410 472 35,000  Level Boston Center
07:49PM 42.5272 -76.2186 81° East 405 466 35,000  Level Boston Center
07:50PM 42.5425 -76.0672 82° East 405 466 35,000  Level Boston Center
07:51PM 42.5556 -75.9186 83° East 405 466 35,000  Level Boston Center
07:52PM 42.5706 -75.7642 82° East 405 466 35,000  Level Boston Center
07:53PM 42.5853 -75.6128 82° East 405 466 35,000  Level Boston Center
07:54PM 42.5997 -75.4639 82° East 405 466 35,000 -60 Level Boston Center
07:55PM 42.6142 -75.3122 83° East 405 466 34,900 -660 Descending Boston Center
07:56PM 42.6283 -75.1578 83° East 405 466 33,700 -1,260 Descending Boston Center
07:57PM 42.6444 -75.0031 82° East 405 466 32,400 -1,500 Descending Boston Center
07:58PM 42.6564 -74.8483 84° East 405 466 30,700 -1,740 Descending Boston Center
07:59PM 42.6719 -74.6936 82° East 405 466 29,000 -900 Descending Boston Center
08:00PM 42.6833 -74.5303 85° East 420 483 29,000 -120 Level Boston Center
08:01PM 42.6961 -74.4033 82° East 426 490 28,800 -900 Descending Boston Center
08:02PM 42.7139 -74.2089 83° East 426 490 27,200 -1,440 Descending Boston Center
08:03PM 42.7247 -74.0456 85° East 426 490 26,000 -600 Descending Boston Center
08:04PM 42.7414 -73.8792 82° East 426 490 26,000  Level Boston Center
08:05PM 42.7469 -73.7606 86° East 436 502 26,000 -840 Level Boston Center
08:06PM 42.7600 -73.5289 86° East 441 507 24,400 -1,260 Descending Boston Center
08:07PM 42.7653 -73.3819 87° East 441 507 23,500 -1,500 Descending Boston Center
08:08PM 42.7708 -73.2036 88° East 436 502 21,400 -1,260 Descending Boston Center
08:09PM 42.7761 -73.0453 87° East 426 490 21,000 -300 Descending Boston Center
08:10PM 42.7831 -72.8814 87° East 426 490 20,900 -900 Descending Boston Center
08:11PM 42.7878 -72.7258 88° East 416 479 19,300 -1,560 Descending Boston Center
08:12PM 42.7964 -72.5817 85° East 403 464 17,800 -1,860 Descending Boston Center
08:13PM 42.8025 -72.4344 87° East 397 457 15,600 -2,580 Descending Boston Center
08:14PM 42.8089 -72.2958 86° East 386 444 12,700 -2,160 Descending Boston Center
08:15PM 42.8128 -72.1825 87° East 345 397 11,300 -1,500 Descending Boston Center
08:16PM 42.8186 -72.0581 86° East 306 352 9,700 -1,200 Descending Boston Center
08:17PM 42.8206 -71.9675 88° East 274 315 9,000 -600 Descending Boston Center
08:18PM 42.8283 -71.8653 84° East 256 295 8,500 -960 Descending Boston Center
08:19PM 42.8656 -71.8142 45° Northeast 199 229 7,100 -1,320 Descending Boston Center
08:20PM 42.9278 -71.7794 22° Northeast 206 237 5,900 -1,200 Descending Boston Center
08:21PM 42.9797 -71.7506 22° Northeast 218 251 4,700 -1,020 Descending Boston Center
08:22PM 43.0272 -71.6931 41° Northeast 213 245 3,900 -960 Descending Boston Center
08:24PM 43.0667 -71.5333 71° East 211 243 1,900 -720 Descending KA90
08:25PM 43.0281 -71.4944 144° Southeast 180 207 1,900 -240 Level Boston Center
08:26PM 42.9903 -71.4694 154° Southeast 151 174 1,400 -660 Descending Boston Center
08:27PM 42.9506 -71.4472 158° South 131 151 500 3,780 Descending Boston Center
08:28PM 42.9231 -71.4278 153° Southeast 131 151 9,000 4,200 Climbing Boston Center
08:29PM 42.8917 -71.4058 153° Southeast 131 151 9,000  Level Boston Center
08:31PM 42.9167 -71.4333 316° Northwest  Level FlightAware Approximate
08:38PM 42.9328 -71.4358 316° Northwest  Level Estimated
08:39PM 42.9328 -71.4358 316° Northwest  Level Estimated
08:40PM 42.9328 -71.4358 316° Northwest  Level Estimated
08:41PM 42.9328 -71.4358 316° Northwest  Level Estimated